AAL3025 KEYW-KDCA
Flight info
| Callsign | AAL3025 |
|---|---|
| Flight time | 2h 13m |
| Altitude | 36000 |
| Route | BUFTT1 MATLK Q87 ONEWY/N0453F380 Q87 ZERBO/N0453F370 Q87 RAYVO Q113 AARNN WAVES CAPSS4 |
| Aircraft | A319/M-SDE3FGHIRWY/LB1 |
Departure
| Time | 2026-05-04 21:34 |
|---|---|
| Airport | Key West International Airport (KEYW) |
Arrival
| Time | 2026-05-04 23:47 |
|---|---|
| Airport | Ronald Reagan Washington National Airport (KDCA) |
| Time | Latitude | Longitude | Altitude | Speed | Heading |
|---|---|---|---|---|---|
| 2026-05-04 21:19 | 24.55437 | -81.75501 | 14 ft | 0 kts | 180° |
| 2026-05-04 21:25 | 24.55452 | -81.75501 | 14 ft | 3 kts | 186° |
| 2026-05-04 21:25 | 24.55471 | -81.75497 | 15 ft | 3 kts | 206° |
| 2026-05-04 21:25 | 24.55486 | -81.75486 | 12 ft | 3 kts | 245° |
| 2026-05-04 21:25 | 24.55489 | -81.75475 | 12 ft | 0 kts | 269° |
| 2026-05-04 21:28 | 24.55489 | -81.75476 | 12 ft | 1 kts | 269° |
| 2026-05-04 21:28 | 24.55491 | -81.75504 | 13 ft | 6 kts | 288° |
| 2026-05-04 21:29 | 24.55525 | -81.75535 | 12 ft | 7 kts | 298° |
| 2026-05-04 21:29 | 24.55530 | -81.75595 | 12 ft | 10 kts | 270° |
| 2026-05-04 21:29 | 24.55529 | -81.75686 | 12 ft | 14 kts | 269° |
| 2026-05-04 21:29 | 24.55528 | -81.75800 | 12 ft | 16 kts | 269° |
| 2026-05-04 21:30 | 24.55527 | -81.75930 | 12 ft | 18 kts | 269° |
| 2026-05-04 21:30 | 24.55525 | -81.76074 | 12 ft | 20 kts | 269° |
| 2026-05-04 21:30 | 24.55524 | -81.76215 | 12 ft | 13 kts | 269° |
| 2026-05-04 21:30 | 24.55524 | -81.76223 | 12 ft | 0 kts | 269° |
| 2026-05-04 21:31 | 24.55524 | -81.76224 | 12 ft | 1 kts | 269° |
| 2026-05-04 21:31 | 24.55523 | -81.76283 | 12 ft | 12 kts | 269° |
| 2026-05-04 21:32 | 24.55522 | -81.76401 | 12 ft | 17 kts | 270° |
| 2026-05-04 21:32 | 24.55522 | -81.76532 | 11 ft | 16 kts | 270° |
| 2026-05-04 21:32 | 24.55529 | -81.76639 | 13 ft | 11 kts | 298° |
| 2026-05-04 21:32 | 24.55597 | -81.76660 | 11 ft | 7 kts | 34° |
| 2026-05-04 21:33 | 24.55606 | -81.76619 | 11 ft | 0 kts | 88° |
| 2026-05-04 21:33 | 24.55607 | -81.76577 | 11 ft | 28 kts | 89° |
| 2026-05-04 21:33 | 24.55612 | -81.76062 | 12 ft | 105 kts | 89° |
| 2026-05-04 21:33 | 24.55624 | -81.75044 | 172 ft | 147 kts | 88° |
| 2026-05-04 21:34 | 24.55691 | -81.73905 | 787 ft | 152 kts | 77° |
| 2026-05-04 21:34 | 24.56317 | -81.72968 | 1363 ft | 158 kts | 32° |
| 2026-05-04 21:34 | 24.57353 | -81.72619 | 1949 ft | 161 kts | 6° |
| 2026-05-04 21:34 | 24.58538 | -81.72538 | 2194 ft | 181 kts | 2° |
| 2026-05-04 21:35 | 24.59864 | -81.72482 | 2451 ft | 202 kts | 1° |
| 2026-05-04 21:35 | 24.61354 | -81.72421 | 2718 ft | 227 kts | 1° |
| 2026-05-04 21:35 | 24.63018 | -81.72345 | 3133 ft | 252 kts | 1° |
| 2026-05-04 21:35 | 24.64826 | -81.72256 | 3787 ft | 266 kts | 1° |
| 2026-05-04 21:36 | 24.66695 | -81.72159 | 4659 ft | 272 kts | 0° |
| 2026-05-04 21:36 | 24.68603 | -81.72055 | 5499 ft | 277 kts | 0° |
| 2026-05-04 21:36 | 24.70540 | -81.71842 | 6343 ft | 284 kts | 9° |
| 2026-05-04 21:36 | 24.72416 | -81.71064 | 7130 ft | 293 kts | 27° |
| 2026-05-04 21:37 | 24.74045 | -81.69683 | 7933 ft | 300 kts | 44° |
| 2026-05-04 21:37 | 24.75482 | -81.67991 | 8757 ft | 304 kts | 45° |
| 2026-05-04 21:37 | 24.76934 | -81.66284 | 9542 ft | 308 kts | 44° |
| 2026-05-04 21:37 | 24.78411 | -81.64557 | 10236 ft | 315 kts | 44° |
| 2026-05-04 21:38 | 24.79976 | -81.62740 | 10461 ft | 338 kts | 44° |
| 2026-05-04 21:38 | 24.81652 | -81.60796 | 10615 ft | 361 kts | 44° |
| 2026-05-04 21:38 | 24.83417 | -81.58743 | 10989 ft | 374 kts | 44° |
| 2026-05-04 21:38 | 24.85251 | -81.56679 | 11544 ft | 380 kts | 42° |
| 2026-05-04 21:39 | 24.87150 | -81.54622 | 12114 ft | 386 kts | 41° |
| 2026-05-04 21:39 | 24.89093 | -81.52556 | 12677 ft | 391 kts | 40° |
| 2026-05-04 21:39 | 24.91069 | -81.50463 | 13239 ft | 396 kts | 40° |
| 2026-05-04 21:39 | 24.93066 | -81.48343 | 13789 ft | 401 kts | 40° |
| 2026-05-04 21:40 | 24.95081 | -81.46191 | 14283 ft | 406 kts | 40° |
| 2026-05-04 21:40 | 24.96976 | -81.44154 | 14764 ft | 409 kts | 40° |
| 2026-05-04 21:40 | 24.99015 | -81.41949 | 15290 ft | 412 kts | 40° |
| 2026-05-04 21:40 | 25.01063 | -81.39729 | 15810 ft | 415 kts | 40° |
| 2026-05-04 21:41 | 25.03125 | -81.37490 | 16326 ft | 418 kts | 40° |
| 2026-05-04 21:41 | 25.05208 | -81.35232 | 16847 ft | 421 kts | 40° |
| 2026-05-04 21:41 | 25.07310 | -81.32957 | 17362 ft | 424 kts | 40° |
| 2026-05-04 21:41 | 25.09403 | -81.30694 | 17885 ft | 428 kts | 40° |
| 2026-05-04 21:42 | 25.11537 | -81.28387 | 18383 ft | 432 kts | 40° |
| 2026-05-04 21:42 | 25.13691 | -81.26056 | 18806 ft | 436 kts | 40° |
| 2026-05-04 21:42 | 25.15858 | -81.23709 | 19258 ft | 439 kts | 40° |
| 2026-05-04 21:42 | 25.18047 | -81.21339 | 19725 ft | 441 kts | 40° |
| 2026-05-04 21:43 | 25.20246 | -81.18958 | 20191 ft | 444 kts | 40° |
| 2026-05-04 21:43 | 25.22463 | -81.16556 | 20654 ft | 447 kts | 40° |
| 2026-05-04 21:43 | 25.24686 | -81.14142 | 21089 ft | 450 kts | 40° |
| 2026-05-04 21:43 | 25.26926 | -81.11707 | 21519 ft | 453 kts | 40° |
| 2026-05-04 21:44 | 25.29177 | -81.09256 | 21947 ft | 455 kts | 40° |
| 2026-05-04 21:44 | 25.31437 | -81.06793 | 22341 ft | 458 kts | 40° |
| 2026-05-04 21:44 | 25.33739 | -81.04351 | 22734 ft | 458 kts | 35° |
| 2026-05-04 21:44 | 25.36307 | -81.02310 | 23123 ft | 453 kts | 24° |
| 2026-05-04 21:45 | 25.39127 | -81.00809 | 23522 ft | 447 kts | 14° |
| 2026-05-04 21:45 | 25.42096 | -80.99870 | 23842 ft | 441 kts | 4° |
| 2026-05-04 21:45 | 25.45119 | -80.99483 | 24169 ft | 435 kts | 355° |
| 2026-05-04 21:45 | 25.48147 | -80.99360 | 24502 ft | 437 kts | 355° |
| 2026-05-04 21:46 | 25.51194 | -80.99232 | 24840 ft | 439 kts | 355° |
| 2026-05-04 21:46 | 25.54249 | -80.99099 | 25170 ft | 441 kts | 355° |
| 2026-05-04 21:46 | 25.57318 | -80.98966 | 25499 ft | 443 kts | 355° |
| 2026-05-04 21:46 | 25.60403 | -80.98831 | 25834 ft | 444 kts | 355° |
| 2026-05-04 21:47 | 25.63496 | -80.98696 | 26170 ft | 446 kts | 355° |
| 2026-05-04 21:47 | 25.66611 | -80.98563 | 26501 ft | 448 kts | 355° |
| 2026-05-04 21:47 | 25.69731 | -80.98428 | 26864 ft | 450 kts | 355° |
| 2026-05-04 21:47 | 25.72864 | -80.98291 | 27200 ft | 452 kts | 355° |
| 2026-05-04 21:48 | 25.76016 | -80.98153 | 27534 ft | 453 kts | 355° |
| 2026-05-04 21:48 | 25.79175 | -80.98015 | 27853 ft | 455 kts | 354° |
| 2026-05-04 21:48 | 25.82342 | -80.97878 | 28170 ft | 457 kts | 354° |
| 2026-05-04 21:48 | 25.85486 | -80.97742 | 28471 ft | 459 kts | 354° |
| 2026-05-04 21:49 | 25.88680 | -80.97604 | 28773 ft | 460 kts | 354° |
| 2026-05-04 21:49 | 25.91887 | -80.97466 | 29070 ft | 462 kts | 354° |
| 2026-05-04 21:49 | 25.95105 | -80.97329 | 29361 ft | 464 kts | 354° |
| 2026-05-04 21:49 | 25.98341 | -80.97192 | 29686 ft | 466 kts | 354° |
| 2026-05-04 21:50 | 26.01393 | -80.97062 | 29924 ft | 467 kts | 354° |
| 2026-05-04 21:50 | 26.04652 | -80.96922 | 30188 ft | 468 kts | 354° |
| 2026-05-04 21:50 | 26.07904 | -80.96782 | 30512 ft | 467 kts | 354° |
| 2026-05-04 21:50 | 26.11151 | -80.96644 | 30827 ft | 467 kts | 354° |
| 2026-05-04 21:51 | 26.14396 | -80.96502 | 31140 ft | 467 kts | 354° |
| 2026-05-04 21:51 | 26.17643 | -80.96356 | 31458 ft | 467 kts | 355° |
| 2026-05-04 21:51 | 26.20885 | -80.96211 | 31774 ft | 467 kts | 354° |
| 2026-05-04 21:51 | 26.24131 | -80.96068 | 32094 ft | 466 kts | 354° |
| 2026-05-04 21:52 | 26.27372 | -80.95926 | 32420 ft | 466 kts | 354° |
| 2026-05-04 21:52 | 26.30615 | -80.95785 | 32770 ft | 466 kts | 354° |
| 2026-05-04 21:52 | 26.33861 | -80.95643 | 33096 ft | 467 kts | 354° |
| 2026-05-04 21:52 | 26.36807 | -80.95516 | 33394 ft | 466 kts | 354° |
| 2026-05-04 21:53 | 26.40052 | -80.95379 | 33725 ft | 466 kts | 354° |
| 2026-05-04 21:53 | 26.43294 | -80.95212 | 34051 ft | 468 kts | 356° |
| 2026-05-04 21:53 | 26.46547 | -80.94937 | 34349 ft | 469 kts | 357° |
| 2026-05-04 21:53 | 26.49800 | -80.94574 | 34659 ft | 470 kts | 358° |
| 2026-05-04 21:54 | 26.53049 | -80.94164 | 34932 ft | 471 kts | 359° |
| 2026-05-04 21:54 | 26.59558 | -80.93348 | 35048 ft | 470 kts | 358° |
| 2026-05-04 21:55 | 26.66063 | -80.92618 | 35024 ft | 469 kts | 358° |
| 2026-05-04 21:55 | 26.72566 | -80.91935 | 35027 ft | 469 kts | 357° |
| 2026-05-04 21:56 | 26.79075 | -80.91245 | 35027 ft | 470 kts | 358° |
| 2026-05-04 21:56 | 26.85588 | -80.90533 | 35033 ft | 471 kts | 358° |
| 2026-05-04 21:57 | 26.91017 | -80.89937 | 35030 ft | 473 kts | 357° |
| 2026-05-04 21:57 | 26.97583 | -80.89219 | 35035 ft | 474 kts | 357° |
| 2026-05-04 21:58 | 27.04155 | -80.88498 | 35033 ft | 474 kts | 357° |
| 2026-05-04 21:58 | 27.10731 | -80.87778 | 35030 ft | 475 kts | 357° |
| 2026-05-04 21:59 | 27.17110 | -80.87073 | 35027 ft | 475 kts | 357° |
| 2026-05-04 21:59 | 27.23693 | -80.86353 | 35026 ft | 475 kts | 357° |
| 2026-05-04 22:00 | 27.30276 | -80.85679 | 35025 ft | 472 kts | 353° |
| 2026-05-04 22:00 | 27.33517 | -80.85811 | 35026 ft | 461 kts | 344° |
| 2026-05-04 22:00 | 27.36661 | -80.86382 | 35027 ft | 457 kts | 341° |
| 2026-05-04 22:01 | 27.42935 | -80.87583 | 35051 ft | 458 kts | 342° |
| 2026-05-04 22:01 | 27.49171 | -80.88754 | 35050 ft | 457 kts | 342° |
| 2026-05-04 22:02 | 27.55448 | -80.89934 | 35054 ft | 457 kts | 342° |
| 2026-05-04 22:02 | 27.61722 | -80.91123 | 35061 ft | 457 kts | 342° |
| 2026-05-04 22:03 | 27.67981 | -80.92310 | 35050 ft | 455 kts | 342° |
| 2026-05-04 22:03 | 27.74220 | -80.93504 | 35048 ft | 455 kts | 342° |
| 2026-05-04 22:04 | 27.80467 | -80.94690 | 35043 ft | 455 kts | 342° |
| 2026-05-04 22:04 | 27.86700 | -80.95884 | 35048 ft | 454 kts | 342° |
| 2026-05-04 22:05 | 27.92926 | -80.97094 | 35051 ft | 454 kts | 342° |
| 2026-05-04 22:05 | 27.99156 | -80.98310 | 35050 ft | 454 kts | 342° |
| 2026-05-04 22:06 | 28.05385 | -80.99525 | 35056 ft | 454 kts | 342° |
| 2026-05-04 22:06 | 28.11618 | -81.00736 | 35051 ft | 453 kts | 342° |
| 2026-05-04 22:07 | 28.17839 | -81.01945 | 35072 ft | 453 kts | 342° |
| 2026-05-04 22:07 | 28.24050 | -81.03152 | 35066 ft | 453 kts | 342° |
| 2026-05-04 22:08 | 28.30262 | -81.04363 | 35070 ft | 453 kts | 342° |
| 2026-05-04 22:08 | 28.36445 | -81.05669 | 35074 ft | 447 kts | 336° |
| 2026-05-04 22:09 | 28.42188 | -81.08034 | 35073 ft | 440 kts | 331° |
| 2026-05-04 22:09 | 28.47907 | -81.10504 | 35073 ft | 440 kts | 332° |
| 2026-05-04 22:10 | 28.53634 | -81.12975 | 35074 ft | 440 kts | 332° |
| 2026-05-04 22:10 | 28.59358 | -81.15449 | 35074 ft | 440 kts | 332° |
| 2026-05-04 22:11 | 28.65080 | -81.17927 | 35077 ft | 440 kts | 331° |
| 2026-05-04 22:11 | 28.70790 | -81.20408 | 35068 ft | 437 kts | 332° |
| 2026-05-04 22:12 | 28.76472 | -81.22873 | 35073 ft | 437 kts | 332° |
| 2026-05-04 22:12 | 28.82153 | -81.25337 | 35076 ft | 437 kts | 332° |
| 2026-05-04 22:13 | 28.87833 | -81.27811 | 35081 ft | 437 kts | 332° |
| 2026-05-04 22:13 | 28.93737 | -81.29623 | 35081 ft | 449 kts | 347° |
| 2026-05-04 22:14 | 28.99988 | -81.30109 | 35079 ft | 449 kts | 349° |
| 2026-05-04 22:14 | 29.06219 | -81.30595 | 35082 ft | 449 kts | 348° |
| 2026-05-04 22:15 | 29.12447 | -81.31098 | 35082 ft | 448 kts | 348° |
| 2026-05-04 22:15 | 29.18672 | -81.31597 | 35083 ft | 448 kts | 348° |
| 2026-05-04 22:16 | 29.24862 | -81.32087 | 35087 ft | 448 kts | 348° |
| 2026-05-04 22:16 | 29.31084 | -81.32556 | 35103 ft | 448 kts | 349° |
| 2026-05-04 22:17 | 29.37332 | -81.32917 | 35100 ft | 449 kts | 349° |
| 2026-05-04 22:17 | 29.43575 | -81.33250 | 35103 ft | 449 kts | 349° |
| 2026-05-04 22:18 | 29.49816 | -81.33609 | 35105 ft | 449 kts | 349° |
| 2026-05-04 22:18 | 29.56049 | -81.33989 | 35120 ft | 449 kts | 349° |
| 2026-05-04 22:19 | 29.62288 | -81.34358 | 35103 ft | 449 kts | 349° |
| 2026-05-04 22:19 | 29.68526 | -81.34722 | 35104 ft | 449 kts | 349° |
| 2026-05-04 22:20 | 29.74771 | -81.35093 | 35103 ft | 449 kts | 349° |
| 2026-05-04 22:20 | 29.81010 | -81.35465 | 35102 ft | 449 kts | 349° |
| 2026-05-04 22:21 | 29.87254 | -81.35834 | 35096 ft | 450 kts | 348° |
| 2026-05-04 22:21 | 29.93512 | -81.36205 | 35100 ft | 450 kts | 348° |
| 2026-05-04 22:22 | 29.99770 | -81.36578 | 35101 ft | 450 kts | 348° |
| 2026-05-04 22:22 | 30.06025 | -81.36952 | 35100 ft | 450 kts | 348° |
| 2026-05-04 22:23 | 30.12281 | -81.37323 | 35148 ft | 450 kts | 348° |
| 2026-05-04 22:23 | 30.18542 | -81.37699 | 35101 ft | 451 kts | 348° |
| 2026-05-04 22:24 | 30.24810 | -81.38072 | 35093 ft | 451 kts | 348° |
| 2026-05-04 22:24 | 30.31071 | -81.38447 | 35100 ft | 451 kts | 348° |
| 2026-05-04 22:25 | 30.37338 | -81.38821 | 35100 ft | 451 kts | 348° |
| 2026-05-04 22:25 | 30.43567 | -81.39191 | 35100 ft | 451 kts | 348° |
| 2026-05-04 22:26 | 30.49832 | -81.39556 | 35100 ft | 451 kts | 348° |
| 2026-05-04 22:26 | 30.56148 | -81.39886 | 35110 ft | 451 kts | 349° |
| 2026-05-04 22:27 | 30.62423 | -81.40210 | 35110 ft | 451 kts | 348° |
| 2026-05-04 22:27 | 30.68691 | -81.40544 | 35131 ft | 451 kts | 348° |
| 2026-05-04 22:28 | 30.74951 | -81.40868 | 35101 ft | 450 kts | 348° |
| 2026-05-04 22:28 | 30.81165 | -81.41199 | 35103 ft | 450 kts | 348° |
| 2026-05-04 22:29 | 30.87418 | -81.41540 | 35097 ft | 450 kts | 348° |
| 2026-05-04 22:29 | 30.93667 | -81.41875 | 35099 ft | 450 kts | 348° |
| 2026-05-04 22:30 | 30.99915 | -81.42200 | 35095 ft | 449 kts | 348° |
| 2026-05-04 22:30 | 31.06165 | -81.42528 | 35100 ft | 449 kts | 348° |
| 2026-05-04 22:31 | 31.12408 | -81.42861 | 35101 ft | 449 kts | 348° |
| 2026-05-04 22:31 | 31.18653 | -81.43205 | 35100 ft | 449 kts | 348° |
| 2026-05-04 22:32 | 31.24960 | -81.42996 | 35158 ft | 466 kts | 1° |
| 2026-05-04 22:32 | 31.28118 | -81.41976 | 35111 ft | 478 kts | 13° |
| 2026-05-04 22:32 | 31.31178 | -81.40370 | 35119 ft | 484 kts | 17° |
| 2026-05-04 22:33 | 31.37276 | -81.37026 | 35110 ft | 484 kts | 17° |
| 2026-05-04 22:33 | 31.43379 | -81.33709 | 35103 ft | 484 kts | 17° |
| 2026-05-04 22:34 | 31.49486 | -81.30406 | 35094 ft | 484 kts | 16° |
| 2026-05-04 22:34 | 31.55596 | -81.27091 | 35088 ft | 484 kts | 17° |
| 2026-05-04 22:35 | 31.61723 | -81.23763 | 35090 ft | 486 kts | 17° |
| 2026-05-04 22:35 | 31.67850 | -81.20412 | 35083 ft | 486 kts | 17° |
| 2026-05-04 22:36 | 31.73816 | -81.17141 | 35082 ft | 486 kts | 17° |
| 2026-05-04 22:36 | 31.79944 | -81.13787 | 35071 ft | 485 kts | 17° |
| 2026-05-04 22:37 | 31.86056 | -81.10438 | 35075 ft | 484 kts | 17° |
| 2026-05-04 22:37 | 31.92158 | -81.07081 | 35073 ft | 484 kts | 17° |
| 2026-05-04 22:38 | 31.98266 | -81.03726 | 35073 ft | 484 kts | 17° |
| 2026-05-04 22:38 | 32.04331 | -81.00381 | 35106 ft | 483 kts | 18° |
| 2026-05-04 22:39 | 32.10368 | -80.96985 | 35078 ft | 480 kts | 18° |
| 2026-05-04 22:39 | 32.16396 | -80.93591 | 35089 ft | 479 kts | 18° |
| 2026-05-04 22:40 | 32.22420 | -80.90214 | 35084 ft | 480 kts | 18° |
| 2026-05-04 22:40 | 32.28472 | -80.86829 | 35094 ft | 482 kts | 18° |
| 2026-05-04 22:41 | 32.34508 | -80.83431 | 35107 ft | 478 kts | 19° |
| 2026-05-04 22:41 | 32.40515 | -80.80039 | 35108 ft | 478 kts | 19° |
| 2026-05-04 22:42 | 32.45493 | -80.77226 | 35107 ft | 477 kts | 19° |
| 2026-05-04 22:42 | 32.51492 | -80.73842 | 35110 ft | 477 kts | 19° |
| 2026-05-04 22:43 | 32.57483 | -80.70457 | 35104 ft | 476 kts | 19° |
| 2026-05-04 22:43 | 32.63453 | -80.67077 | 35105 ft | 475 kts | 19° |
| 2026-05-04 22:44 | 32.69422 | -80.63687 | 35105 ft | 475 kts | 19° |
| 2026-05-04 22:44 | 32.75377 | -80.60255 | 35092 ft | 476 kts | 20° |
| 2026-05-04 22:45 | 32.81297 | -80.56726 | 35118 ft | 476 kts | 20° |
| 2026-05-04 22:45 | 32.90155 | -80.51400 | 35088 ft | 476 kts | 20° |
| 2026-05-04 22:46 | 32.96080 | -80.47879 | 35080 ft | 476 kts | 20° |
| 2026-05-04 22:46 | 33.02008 | -80.44359 | 35078 ft | 476 kts | 20° |
| 2026-05-04 22:47 | 33.07924 | -80.40821 | 35082 ft | 476 kts | 20° |
| 2026-05-04 22:47 | 33.13837 | -80.37264 | 35082 ft | 476 kts | 20° |
| 2026-05-04 22:48 | 33.19717 | -80.33740 | 35080 ft | 476 kts | 20° |
| 2026-05-04 22:48 | 33.25635 | -80.30194 | 35080 ft | 476 kts | 20° |
| 2026-05-04 22:49 | 33.31550 | -80.26637 | 35104 ft | 475 kts | 21° |
| 2026-05-04 22:49 | 33.37446 | -80.23089 | 35073 ft | 474 kts | 21° |
| 2026-05-04 22:50 | 33.43338 | -80.19533 | 35075 ft | 474 kts | 21° |
| 2026-05-04 22:50 | 33.49228 | -80.15976 | 35078 ft | 474 kts | 21° |
| 2026-05-04 22:51 | 33.55127 | -80.12413 | 35081 ft | 475 kts | 21° |
| 2026-05-04 22:51 | 33.61023 | -80.08841 | 35079 ft | 474 kts | 21° |
| 2026-05-04 22:52 | 33.66622 | -80.04563 | 35073 ft | 485 kts | 36° |
| 2026-05-04 22:52 | 33.71698 | -79.99221 | 35076 ft | 485 kts | 36° |
| 2026-05-04 22:53 | 33.76778 | -79.93887 | 35052 ft | 485 kts | 36° |
| 2026-05-04 22:53 | 33.81865 | -79.88542 | 35056 ft | 485 kts | 37° |
| 2026-05-04 22:54 | 33.86942 | -79.83206 | 35059 ft | 485 kts | 36° |
| 2026-05-04 22:54 | 33.92020 | -79.77861 | 35056 ft | 485 kts | 36° |
| 2026-05-04 22:55 | 33.97098 | -79.72500 | 35055 ft | 485 kts | 36° |
| 2026-05-04 22:55 | 34.02170 | -79.67134 | 35056 ft | 485 kts | 36° |
| 2026-05-04 22:56 | 34.07206 | -79.61804 | 35059 ft | 484 kts | 37° |
| 2026-05-04 22:56 | 34.12258 | -79.56438 | 35065 ft | 483 kts | 37° |
| 2026-05-04 22:57 | 34.17303 | -79.51071 | 35069 ft | 484 kts | 37° |
| 2026-05-04 22:57 | 34.22351 | -79.45704 | 35069 ft | 484 kts | 37° |
| 2026-05-04 22:58 | 34.27405 | -79.40319 | 35069 ft | 484 kts | 36° |
| 2026-05-04 22:58 | 34.32447 | -79.34931 | 35068 ft | 483 kts | 37° |
| 2026-05-04 22:59 | 34.37484 | -79.29540 | 35060 ft | 483 kts | 37° |
| 2026-05-04 22:59 | 34.42600 | -79.24287 | 35056 ft | 479 kts | 30° |
| 2026-05-04 23:00 | 34.48368 | -79.20425 | 35044 ft | 472 kts | 21° |
| 2026-05-04 23:00 | 34.54246 | -79.16846 | 35043 ft | 473 kts | 21° |
| 2026-05-04 23:01 | 34.60134 | -79.13258 | 35045 ft | 474 kts | 21° |
| 2026-05-04 23:01 | 34.66020 | -79.09653 | 35045 ft | 474 kts | 21° |
| 2026-05-04 23:02 | 34.71903 | -79.06036 | 35044 ft | 474 kts | 21° |
| 2026-05-04 23:02 | 34.77782 | -79.02415 | 35040 ft | 474 kts | 21° |
| 2026-05-04 23:03 | 34.83680 | -78.98788 | 35034 ft | 475 kts | 21° |
| 2026-05-04 23:03 | 34.89581 | -78.95155 | 35035 ft | 475 kts | 21° |
| 2026-05-04 23:04 | 34.95489 | -78.91501 | 35035 ft | 476 kts | 21° |
| 2026-05-04 23:04 | 35.01387 | -78.87846 | 35037 ft | 475 kts | 21° |
| 2026-05-04 23:05 | 35.07247 | -78.84227 | 35035 ft | 475 kts | 21° |
| 2026-05-04 23:05 | 35.13140 | -78.80577 | 35009 ft | 475 kts | 21° |
| 2026-05-04 23:06 | 35.19028 | -78.76914 | 35016 ft | 475 kts | 21° |
| 2026-05-04 23:06 | 35.24914 | -78.73244 | 35028 ft | 474 kts | 21° |
| 2026-05-04 23:07 | 35.30785 | -78.69578 | 35040 ft | 474 kts | 21° |
| 2026-05-04 23:07 | 35.36438 | -78.66041 | 35039 ft | 476 kts | 21° |
| 2026-05-04 23:08 | 35.42342 | -78.62347 | 35035 ft | 477 kts | 21° |
| 2026-05-04 23:08 | 35.48257 | -78.58649 | 35030 ft | 477 kts | 21° |
| 2026-05-04 23:09 | 35.54165 | -78.54942 | 35016 ft | 477 kts | 21° |
| 2026-05-04 23:09 | 35.60070 | -78.51221 | 35017 ft | 477 kts | 21° |
| 2026-05-04 23:10 | 35.65976 | -78.47501 | 35017 ft | 477 kts | 21° |
| 2026-05-04 23:10 | 35.71874 | -78.43778 | 35014 ft | 475 kts | 21° |
| 2026-05-04 23:11 | 35.77752 | -78.40068 | 35009 ft | 475 kts | 21° |
| 2026-05-04 23:11 | 35.83630 | -78.36365 | 35013 ft | 474 kts | 21° |
| 2026-05-04 23:12 | 35.89508 | -78.32653 | 35026 ft | 475 kts | 21° |
| 2026-05-04 23:12 | 35.95381 | -78.28921 | 35028 ft | 475 kts | 21° |
| 2026-05-04 23:13 | 36.01247 | -78.25183 | 35026 ft | 475 kts | 21° |
| 2026-05-04 23:13 | 36.07117 | -78.21446 | 35025 ft | 474 kts | 21° |
| 2026-05-04 23:14 | 36.12988 | -78.17715 | 35022 ft | 474 kts | 21° |
| 2026-05-04 23:14 | 36.18851 | -78.13977 | 35012 ft | 474 kts | 21° |
| 2026-05-04 23:15 | 36.24681 | -78.10252 | 35011 ft | 474 kts | 21° |
| 2026-05-04 23:15 | 36.30356 | -78.06626 | 34999 ft | 474 kts | 21° |
| 2026-05-04 23:16 | 36.36212 | -78.02857 | 34998 ft | 474 kts | 21° |
| 2026-05-04 23:16 | 36.42234 | -77.99736 | 34992 ft | 466 kts | 13° |
| 2026-05-04 23:17 | 36.48310 | -77.96924 | 34996 ft | 466 kts | 13° |
| 2026-05-04 23:17 | 36.54396 | -77.94108 | 34998 ft | 468 kts | 14° |
| 2026-05-04 23:18 | 36.60501 | -77.91259 | 35043 ft | 469 kts | 14° |
| 2026-05-04 23:18 | 36.66594 | -77.88413 | 35040 ft | 466 kts | 14° |
| 2026-05-04 23:19 | 36.72658 | -77.85568 | 34745 ft | 466 kts | 14° |
| 2026-05-04 23:19 | 36.75683 | -77.84150 | 34284 ft | 464 kts | 13° |
| 2026-05-04 23:19 | 36.78708 | -77.82736 | 33798 ft | 464 kts | 13° |
| 2026-05-04 23:20 | 36.81728 | -77.81323 | 33272 ft | 463 kts | 14° |
| 2026-05-04 23:20 | 36.84745 | -77.79909 | 32772 ft | 463 kts | 14° |
| 2026-05-04 23:20 | 36.87750 | -77.78496 | 32272 ft | 460 kts | 14° |
| 2026-05-04 23:20 | 36.90738 | -77.77085 | 31777 ft | 458 kts | 14° |
| 2026-05-04 23:21 | 36.93710 | -77.75683 | 31297 ft | 457 kts | 15° |
| 2026-05-04 23:21 | 36.96684 | -77.74281 | 30821 ft | 457 kts | 15° |
| 2026-05-04 23:21 | 36.99657 | -77.72881 | 30355 ft | 457 kts | 15° |
| 2026-05-04 23:21 | 37.02631 | -77.71483 | 29859 ft | 457 kts | 15° |
| 2026-05-04 23:22 | 37.05610 | -77.70080 | 29317 ft | 458 kts | 15° |
| 2026-05-04 23:22 | 37.08594 | -77.68670 | 28807 ft | 459 kts | 16° |
| 2026-05-04 23:22 | 37.11575 | -77.67253 | 28285 ft | 458 kts | 16° |
| 2026-05-04 23:22 | 37.14551 | -77.65836 | 27772 ft | 456 kts | 16° |
| 2026-05-04 23:23 | 37.17510 | -77.64431 | 27266 ft | 453 kts | 16° |
| 2026-05-04 23:23 | 37.20405 | -77.63056 | 26781 ft | 450 kts | 16° |
| 2026-05-04 23:23 | 37.23324 | -77.61673 | 26291 ft | 447 kts | 16° |
| 2026-05-04 23:23 | 37.26230 | -77.60294 | 25821 ft | 445 kts | 16° |
| 2026-05-04 23:24 | 37.29117 | -77.58924 | 25339 ft | 442 kts | 15° |
| 2026-05-04 23:24 | 37.31993 | -77.57558 | 24896 ft | 440 kts | 15° |
| 2026-05-04 23:24 | 37.34855 | -77.56194 | 24441 ft | 446 kts | 15° |
| 2026-05-04 23:24 | 37.37817 | -77.54792 | 23990 ft | 462 kts | 15° |
| 2026-05-04 23:25 | 37.40876 | -77.53342 | 23544 ft | 465 kts | 16° |
| 2026-05-04 23:25 | 37.43901 | -77.51899 | 23019 ft | 464 kts | 16° |
| 2026-05-04 23:25 | 37.46905 | -77.50454 | 22506 ft | 461 kts | 16° |
| 2026-05-04 23:25 | 37.49888 | -77.49016 | 21999 ft | 457 kts | 16° |
| 2026-05-04 23:26 | 37.52847 | -77.47591 | 21635 ft | 454 kts | 16° |
| 2026-05-04 23:26 | 37.55796 | -77.46178 | 21297 ft | 453 kts | 16° |
| 2026-05-04 23:26 | 37.58705 | -77.44824 | 20959 ft | 448 kts | 12° |
| 2026-05-04 23:26 | 37.61704 | -77.43856 | 20603 ft | 443 kts | 9° |
| 2026-05-04 23:27 | 37.64699 | -77.42937 | 20260 ft | 441 kts | 9° |
| 2026-05-04 23:27 | 37.67678 | -77.42024 | 19910 ft | 439 kts | 9° |
| 2026-05-04 23:27 | 37.70647 | -77.41113 | 19560 ft | 437 kts | 9° |
| 2026-05-04 23:27 | 37.73594 | -77.40207 | 19231 ft | 435 kts | 9° |
| 2026-05-04 23:28 | 37.75578 | -77.39596 | 19008 ft | 434 kts | 9° |
| 2026-05-04 23:28 | 37.78465 | -77.38704 | 18681 ft | 432 kts | 9° |
| 2026-05-04 23:28 | 37.81372 | -77.37802 | 18353 ft | 430 kts | 9° |
| 2026-05-04 23:28 | 37.84274 | -77.36902 | 17990 ft | 428 kts | 9° |
| 2026-05-04 23:29 | 37.87158 | -77.36005 | 17610 ft | 425 kts | 9° |
| 2026-05-04 23:29 | 37.90020 | -77.35116 | 17240 ft | 422 kts | 9° |
| 2026-05-04 23:29 | 37.92867 | -77.34237 | 16957 ft | 420 kts | 9° |
| 2026-05-04 23:29 | 37.95702 | -77.33366 | 16957 ft | 419 kts | 9° |
| 2026-05-04 23:30 | 37.98544 | -77.32495 | 16946 ft | 421 kts | 9° |
| 2026-05-04 23:30 | 38.01391 | -77.31624 | 16942 ft | 421 kts | 9° |
| 2026-05-04 23:30 | 38.04237 | -77.30752 | 16940 ft | 421 kts | 9° |
| 2026-05-04 23:30 | 38.07086 | -77.29872 | 16935 ft | 421 kts | 9° |
| 2026-05-04 23:31 | 38.09938 | -77.28987 | 16933 ft | 422 kts | 9° |
| 2026-05-04 23:31 | 38.12788 | -77.28098 | 16612 ft | 420 kts | 9° |
| 2026-05-04 23:31 | 38.15617 | -77.27210 | 16150 ft | 417 kts | 9° |
| 2026-05-04 23:31 | 38.18417 | -77.26325 | 15698 ft | 413 kts | 9° |
| 2026-05-04 23:32 | 38.21197 | -77.25429 | 15271 ft | 411 kts | 11° |
| 2026-05-04 23:32 | 38.23949 | -77.24453 | 14818 ft | 410 kts | 12° |
| 2026-05-04 23:32 | 38.26673 | -77.23414 | 14393 ft | 407 kts | 12° |
| 2026-05-04 23:32 | 38.29366 | -77.22351 | 13958 ft | 404 kts | 13° |
| 2026-05-04 23:33 | 38.32042 | -77.21294 | 13514 ft | 402 kts | 13° |
| 2026-05-04 23:33 | 38.34707 | -77.20249 | 13039 ft | 399 kts | 12° |
| 2026-05-04 23:33 | 38.37354 | -77.19227 | 12572 ft | 396 kts | 12° |
| 2026-05-04 23:33 | 38.39981 | -77.18217 | 12115 ft | 394 kts | 12° |
| 2026-05-04 23:34 | 38.42593 | -77.17213 | 11665 ft | 391 kts | 12° |
| 2026-05-04 23:34 | 38.45200 | -77.16211 | 11215 ft | 390 kts | 12° |
| 2026-05-04 23:34 | 38.47789 | -77.15216 | 10773 ft | 388 kts | 12° |
| 2026-05-04 23:34 | 38.50339 | -77.14229 | 10342 ft | 377 kts | 12° |
| 2026-05-04 23:35 | 38.52791 | -77.13271 | 10079 ft | 360 kts | 12° |
| 2026-05-04 23:35 | 38.55102 | -77.12364 | 9834 ft | 334 kts | 12° |
| 2026-05-04 23:35 | 38.57253 | -77.11522 | 9570 ft | 313 kts | 12° |
| 2026-05-04 23:35 | 38.59309 | -77.10726 | 9316 ft | 304 kts | 11° |
| 2026-05-04 23:36 | 38.61319 | -77.09959 | 9047 ft | 298 kts | 11° |
| 2026-05-04 23:36 | 38.63286 | -77.09208 | 8794 ft | 293 kts | 12° |
| 2026-05-04 23:36 | 38.65249 | -77.08457 | 8549 ft | 295 kts | 12° |
| 2026-05-04 23:36 | 38.67212 | -77.07706 | 8299 ft | 295 kts | 12° |
| 2026-05-04 23:37 | 38.69195 | -77.07078 | 8002 ft | 291 kts | 3° |
| 2026-05-04 23:37 | 38.71203 | -77.06864 | 7754 ft | 290 kts | 360° |
| 2026-05-04 23:37 | 38.73189 | -77.06667 | 7507 ft | 290 kts | 0° |
| 2026-05-04 23:37 | 38.75224 | -77.06570 | 7257 ft | 287 kts | 351° |
| 2026-05-04 23:38 | 38.77150 | -77.07082 | 7029 ft | 281 kts | 335° |
| 2026-05-04 23:38 | 38.78869 | -77.08185 | 6792 ft | 276 kts | 322° |
| 2026-05-04 23:38 | 38.80480 | -77.09523 | 6545 ft | 276 kts | 322° |
| 2026-05-04 23:38 | 38.82101 | -77.10862 | 6304 ft | 278 kts | 322° |
| 2026-05-04 23:39 | 38.83653 | -77.12316 | 5925 ft | 275 kts | 312° |
| 2026-05-04 23:39 | 38.85024 | -77.14023 | 5520 ft | 275 kts | 311° |
| 2026-05-04 23:39 | 38.86364 | -77.15691 | 5137 ft | 276 kts | 311° |
| 2026-05-04 23:39 | 38.87745 | -77.17411 | 4739 ft | 276 kts | 311° |
| 2026-05-04 23:40 | 38.89107 | -77.19105 | 4327 ft | 268 kts | 311° |
| 2026-05-04 23:40 | 38.90417 | -77.20731 | 3928 ft | 260 kts | 311° |
| 2026-05-04 23:40 | 38.91703 | -77.22325 | 3528 ft | 254 kts | 311° |
| 2026-05-04 23:40 | 38.93045 | -77.23774 | 3137 ft | 254 kts | 327° |
| 2026-05-04 23:41 | 38.94639 | -77.24635 | 2982 ft | 242 kts | 332° |
| 2026-05-04 23:41 | 38.96249 | -77.25191 | 2854 ft | 244 kts | 357° |
| 2026-05-04 23:41 | 38.97889 | -77.24639 | 2810 ft | 247 kts | 28° |
| 2026-05-04 23:41 | 38.99165 | -77.23199 | 2747 ft | 245 kts | 58° |
| 2026-05-04 23:42 | 38.99820 | -77.21225 | 2704 ft | 239 kts | 85° |
| 2026-05-04 23:42 | 38.99752 | -77.19148 | 2656 ft | 229 kts | 112° |
| 2026-05-04 23:42 | 38.99054 | -77.17384 | 2594 ft | 215 kts | 137° |
| 2026-05-04 23:42 | 38.97979 | -77.16231 | 2567 ft | 194 kts | 158° |
| 2026-05-04 23:43 | 38.96776 | -77.15483 | 2539 ft | 190 kts | 159° |
| 2026-05-04 23:43 | 38.95722 | -77.14469 | 2477 ft | 183 kts | 146° |
| 2026-05-04 23:43 | 38.94796 | -77.13423 | 2328 ft | 173 kts | 146° |
| 2026-05-04 23:43 | 38.93925 | -77.12384 | 2200 ft | 168 kts | 144° |
| 2026-05-04 23:44 | 38.93053 | -77.11382 | 2145 ft | 167 kts | 147° |
| 2026-05-04 23:44 | 38.92187 | -77.10587 | 1903 ft | 146 kts | 154° |
| 2026-05-04 23:44 | 38.91363 | -77.09898 | 1591 ft | 139 kts | 149° |
| 2026-05-04 23:44 | 38.90722 | -77.08958 | 1368 ft | 144 kts | 127° |
| 2026-05-04 23:45 | 38.90419 | -77.07719 | 1100 ft | 146 kts | 108° |
| 2026-05-04 23:45 | 38.89996 | -77.06623 | 930 ft | 135 kts | 138° |
| 2026-05-04 23:45 | 38.89308 | -77.05856 | 827 ft | 132 kts | 146° |
| 2026-05-04 23:45 | 38.88626 | -77.05105 | 635 ft | 132 kts | 141° |
| 2026-05-04 23:46 | 38.87969 | -77.04301 | 436 ft | 130 kts | 149° |
| 2026-05-04 23:46 | 38.87100 | -77.03976 | 260 ft | 128 kts | 175° |
| 2026-05-04 23:46 | 38.86238 | -77.03884 | 84 ft | 125 kts | 177° |
| 2026-05-04 23:46 | 38.85417 | -77.03805 | 28 ft | 108 kts | 174° |
| 2026-05-04 23:47 | 38.84826 | -77.03743 | 24 ft | 61 kts | 175° |
| 2026-05-04 23:47 | 38.84551 | -77.03717 | 24 ft | 29 kts | 175° |
| 2026-05-04 23:47 | 38.84405 | -77.03736 | 25 ft | 14 kts | 224° |
| 2026-05-04 23:47 | 38.84388 | -77.03854 | 25 ft | 13 kts | 266° |
| 2026-05-04 23:48 | 38.84382 | -77.03992 | 26 ft | 17 kts | 268° |
| 2026-05-04 23:48 | 38.84398 | -77.04112 | 26 ft | 13 kts | 328° |
| 2026-05-04 23:48 | 38.84503 | -77.04130 | 24 ft | 16 kts | 354° |
| 2026-05-04 23:48 | 38.84603 | -77.04063 | 25 ft | 18 kts | 41° |
| 2026-05-04 23:49 | 38.84715 | -77.03984 | 24 ft | 19 kts | 25° |
| 2026-05-04 23:49 | 38.84845 | -77.03946 | 24 ft | 21 kts | 355° |
| 2026-05-04 23:49 | 38.84995 | -77.03959 | 24 ft | 23 kts | 355° |
| 2026-05-04 23:49 | 38.85158 | -77.03977 | 24 ft | 24 kts | 355° |
| 2026-05-04 23:50 | 38.85321 | -77.03992 | 24 ft | 22 kts | 353° |
| 2026-05-04 23:50 | 38.85474 | -77.04008 | 24 ft | 16 kts | 356° |
| 2026-05-04 23:50 | 38.85537 | -77.04039 | 24 ft | 11 kts | 307° |
| 2026-05-04 23:50 | 38.85534 | -77.04105 | 24 ft | 8 kts | 252° |
| 2026-05-04 23:51 | 38.85514 | -77.04182 | 24 ft | 11 kts | 252° |
| 2026-05-04 23:51 | 38.85487 | -77.04249 | 25 ft | 8 kts | 204° |
| 2026-05-04 23:51 | 38.85442 | -77.04237 | 24 ft | 3 kts | 160° |
| 2026-05-04 23:51 | 38.85441 | -77.04236 | 24 ft | 0 kts | 160° |